Latest Weather Observations for Hamilton

IDV60801

Issued at 1:52 pm EDT Thursday 17 January 2019 (issued every 10 minutes, with the page automatically refreshed every 10 minutes)

About weather observations | Map of weather stations | Latest weather observations for VIC | Other Formats
Station Details ID: 090173 Name: HAMILTON AIRPORT Lat: -37.65 Lon: 142.06 Height: 241.1 m
Data from the previous 72 hours. | See also: Recent months at Hamilton
Date/Time
EDT
Temp
°C
App
Temp
°C
Dew
Point
°C
Rel
Hum
%
Delta-T
°C
Wind Press
QNH
hPa
Press
MSL
hPa
Rain since
9am
mm
Dir  Spd
km/h
Gust
km/h
Spd
kts
Gust
kts
17/01:30pm 30.6 28.9 14.7 38 9.8 NW 17 26 9 14 1009.1 1008.4 0.0
17/01:00pm 26.6 24.3 14.7 48 7.2 WNW 20 35 11 19 1010.3 1009.6 0.0
17/12:30pm 25.8 21.5 15.5 53 6.3 W 32 50 17 27 1010.7 1010.0 0.0
17/12:00pm 26.0 22.7 15.1 51 6.6 WNW 26 37 14 20 1010.1 1009.4 0.0
17/11:30am 26.2 22.1 13.7 46 7.5 WNW 28 37 15 20 1010.0 1009.3 0.0
17/11:00am 25.8 23.3 14.0 48 7.1 NNW 20 28 11 15 1009.6 1008.9 0.0
17/10:30am 25.6 23.1 14.1 49 6.9 NNW 20 30 11 16 1009.3 1008.6 0.0
17/10:00am 24.5 23.2 13.7 51 6.4 WNW 13 15 7 8 1009.7 1009.0 0.0
17/09:30am 23.7 21.6 14.7 57 5.4 N 19 26 10 14 1009.0 1008.3 0.0
17/09:00am 23.2 22.9 14.5 58 5.2 N 9 13 5 7 1009.5 1008.8 0.0
17/08:30am 22.4 22.2 14.8 62 4.5 NNE 9 11 5 6 1009.7 1009.0 0.0
17/08:00am 21.5 20.6 14.9 66 3.9 N 13 17 7 9 1009.5 1008.8 0.0
17/07:30am 20.9 20.4 15.0 69 3.5 NE 11 11 6 6 1009.2 1008.5 0.0
17/07:00am 20.2 18.8 14.6 70 3.3 NE 15 19 8 10 1009.0 1008.3 0.0
17/06:30am 20.9 20.8 13.4 62 4.3 W 6 9 3 5 1009.4 1008.7 0.0
17/06:00am 21.4 19.5 13.1 59 4.8 WSW 15 19 8 10 1009.7 1009.0 0.0
17/05:30am 22.1 19.3 12.6 55 5.5 WSW 19 24 10 13 1009.5 1008.8 0.0
17/05:02am 22.1 20.0 13.5 58 5.0 WNW 17 50 9 27 1008.6 1007.9 0.0
17/05:00am 22.3 21.3 13.4 57 5.2 NW 11 17 6 9 1007.7 1006.9 0.0
17/04:30am 22.5 21.9 13.6 57 5.2 NW 9 11 5 6 1007.0 1006.2 0.0
17/04:00am 23.9 22.0 11.9 47 6.9 NE 13 17 7 9 1006.4 1005.7 0.0
17/03:30am 23.2 21.4 12.2 50 6.3 NE 13 17 7 9 1007.0 1006.2 0.0
17/03:00am 23.5 21.1 11.5 47 6.8 NNE 15 17 8 9 1007.4 1006.6 0.0
17/02:30am 21.5 20.5 12.4 56 5.2 N 9 11 5 6 1008.1 1007.4 0.0
17/02:00am 21.4 19.9 12.0 55 5.3 N 11 13 6 7 1009.0 1008.3 0.0
17/01:30am 21.2 20.7 12.1 56 5.2 NE 6 7 3 4 1008.4 1007.7 0.0
17/01:00am 21.3 20.7 11.6 54 5.5 S 6 7 3 4 1008.2 1007.5 0.0
17/12:30am 21.2 20.3 11.5 54 5.4 SSE 7 9 4 5 1008.6 1007.9 0.0
17/12:00am 22.1 20.0 11.2 50 6.1 ESE 13 15 7 8 1008.9 1008.2 0.0
 
Date/Time
EDT
Temp
°C
App
Temp
°C
Dew
Point
°C
Rel
Hum
%
Delta-T
°C
Wind Press
QNH
hPa
Press
MSL
hPa
Rain since
9am
mm
Dir  Spd
km/h
Gust
km/h
Spd
kts
Gust
kts
16/11:30pm 22.1 20.1 11.5 51 6.0 ESE 13 15 7 8 1009.2 1008.5 0.0
16/11:00pm 22.7 20.2 11.1 48 6.5 ESE 15 17 8 9 1009.6 1008.9 0.0
16/10:30pm 22.5 20.4 11.3 49 6.3 SSE 13 15 7 8 1009.8 1009.1 0.0
16/10:00pm 23.2 21.1 11.3 47 6.7 E 13 17 7 9 1009.4 1008.7 0.0
16/09:30pm 23.5 21.0 10.9 45 7.1 ESE 15 17 8 9 1009.2 1008.5 0.0
16/09:00pm 25.2 22.7 11.0 41 8.1 E 15 20 8 11 1009.1 1008.4 0.0
16/08:30pm 26.6 23.6 10.7 37 9.0 E 17 20 9 11 1009.0 1008.3 0.0
16/08:00pm 27.3 23.9 10.5 35 9.6 E 19 28 10 15 1008.7 1008.0 0.0
16/07:30pm 27.4 22.4 9.7 33 9.9 E 26 32 14 17 1008.6 1007.9 0.0
16/07:00pm 28.8 23.7 10.5 32 10.5 E 28 35 15 19 1008.5 1007.8 0.0
16/06:30pm 27.3 21.4 10.5 35 9.6 E 32 41 17 22 1008.9 1008.2 0.0
16/06:00pm 28.7 21.7 9.9 31 10.7 ESE 37 46 20 25 1008.8 1008.1 0.0
16/05:30pm 26.0 20.4 11.4 40 8.4 ESE 32 39 17 21 1009.6 1008.9 0.0
16/05:00pm 26.0 22.9 13.5 46 7.4 ESE 22 28 12 15 1010.1 1009.4 0.0
16/04:30pm 25.4 22.5 13.9 49 6.9 E 22 26 12 14 1010.9 1010.1 0.0
16/04:00pm 24.6 22.2 14.4 53 6.1 ESE 20 24 11 13 1011.3 1010.5 0.0
16/03:30pm 24.6 22.7 14.1 52 6.3 SE 17 22 9 12 1012.2 1011.5 0.0
16/03:00pm 24.3 23.9 14.1 53 6.1 SSE 9 17 5 9 1012.9 1012.2 0.0
16/02:30pm 24.8 23.2 14.9 54 6.0 SSE 17 24 9 13 1013.1 1012.4 0.0
16/02:00pm 26.5 23.9 15.8 51 6.6 SSE 24 30 13 16 1012.8 1012.1 0.0
16/01:30pm 24.3 20.5 14.7 55 5.8 S 28 41 15 22 1013.1 1012.4 0.0
16/01:00pm 27.0 22.0 13.4 43 8.1 SSW 32 43 17 23 1012.5 1011.8 0.0
16/12:30pm 30.6 28.0 13.8 35 10.2 S 20 28 11 15 1012.0 1011.3 0.0
16/12:00pm 29.1 27.7 13.3 37 9.5 S 13 20 7 11 1011.5 1010.8 0.0
16/11:30am 28.6 26.8 13.3 39 9.2 S 15 19 8 10 1011.4 1010.7 0.0
16/11:00am 29.6 27.6 13.8 38 9.6 SSW 17 24 9 13 1011.1 1010.3 0.0
16/10:30am 30.9 29.2 9.7 27 12.1 NNW 9 13 5 7 1010.7 1010.0 0.0
16/10:00am 28.4 27.4 12.3 37 9.5 NNE 9 13 5 7 1010.7 1010.0 0.0
16/09:30am 24.6 24.2 14.1 52 6.3 ENE 9 13 5 7 1011.0 1010.2 0.0
16/09:00am 21.2 20.7 14.8 67 3.8 E 11 13 6 7 1011.1 1010.3 0.0
16/08:30am 18.5 18.1 16.3 87 1.3 ESE 13 17 7 9 1011.3 1010.5 0.0
16/08:10am 17.1 15.9 16.0 93 0.7 ESE 17 22 9 12 1010.9 1010.1 0.0
16/08:00am 16.5 14.7 15.5 94 0.6 ESE 19 24 10 13 1010.9 1010.1 0.0
16/07:30am 15.9 13.7 14.9 94 0.6 ESE 20 28 11 15 1010.9 1010.1 0.0
16/07:00am 15.9 13.9 14.9 94 0.6 SE 19 24 10 13 1010.9 1010.1 0.0
16/06:38am 15.7 13.6 14.7 94 0.6 SE 19 22 10 12 1010.4 1009.7 0.0
16/06:30am 15.4 13.2 14.3 93 0.6 SE 19 22 10 12 1010.2 1009.5 0.0
16/06:00am 15.2 12.9 14.1 93 0.6 SE 19 22 10 12 1010.1 1009.4 0.0
16/05:30am 15.7 13.9 14.4 92 0.7 SE 17 19 9 10 1010.2 1009.5 0.0
16/05:00am 15.5 14.3 14.0 91 0.9 ESE 13 17 7 9 1010.2 1009.5 0.0
16/04:30am 15.6 14.4 14.0 90 0.9 ESE 13 15 7 8 1010.3 1009.6 0.0
16/04:13am 16.0 15.3 14.2 89 1.0 ESE 11 15 6 8 1010.6 1009.9 0.0
16/04:00am 16.4 14.7 14.6 89 1.0 SE 17 20 9 11 1010.7 1010.0 0.0
16/03:30am 17.0 15.1 15.2 89 1.1 SE 19 24 10 13 1011.1 1010.3 0.0
16/03:00am 17.0 15.4 15.0 88 1.2 SSE 17 22 9 12 1011.4 1010.7 0.0
16/02:43am 16.9 15.3 14.9 88 1.2 SE 17 22 9 12 1011.4 1010.7 0.0
16/02:30am 16.7 15.2 14.3 86 1.4 SE 15 22 8 12 1011.5 1010.8 0.0
16/02:00am 17.1 15.6 14.2 83 1.7 SSE 15 19 8 10 1011.5 1010.8 0.0
16/01:30am 16.7 15.3 13.4 81 1.9 S 13 17 7 9 1012.0 1011.3 0.0
16/01:00am 17.9 15.8 12.4 70 3.1 E 15 17 8 9 1011.4 1010.7 0.0
16/12:30am 19.6 16.7 12.8 65 3.9 SSE 20 26 11 14 1012.3 1011.6 0.0
16/12:00am 20.4 16.5 9.6 50 5.8 SSW 20 26 11 14 1012.9 1012.2 0.0
 
Date/Time
EDT
Temp
°C
App
Temp
°C
Dew
Point
°C
Rel
Hum
%
Delta-T
°C
Wind Press
QNH
hPa
Press
MSL
hPa
Rain since
9am
mm
Dir  Spd
km/h
Gust
km/h
Spd
kts
Gust
kts
15/11:30pm 21.1 18.0 9.0 46 6.5 SSE 15 20 8 11 1012.0 1011.3 0.0
15/11:00pm 22.9 19.1 7.4 37 8.2 SSW 17 20 9 11 1012.1 1011.4 0.0
15/10:30pm 24.5 20.5 6.7 32 9.3 S 17 19 9 10 1011.5 1010.8 0.0
15/10:00pm 26.9 21.5 4.6 24 11.4 S 22 28 12 15 1011.1 1010.3 0.0
15/09:30pm 28.4 23.7 3.3 20 12.7 S 17 22 9 12 1010.5 1009.8 0.0
15/09:00pm 28.7 25.5 4.9 22 12.4 SSE 11 15 6 8 1010.2 1009.5 0.0
15/08:30pm 31.5 27.9 5.1 19 14.0 SSW 13 17 7 9 1010.0 1009.3 0.0
15/08:00pm 33.5 28.4 3.3 15 15.8 SSW 19 22 10 12 1009.6 1008.9 0.0
15/07:30pm 37.4 33.5 3.2 12 18.2 SW 13 19 7 10 1009.2 1008.5 0.0
15/07:00pm 38.1 34.7 3.8 12 18.5 SW 11 17 6 9 1009.0 1008.3 0.0
15/06:30pm 37.9 34.2 4.7 13 18.1 WSW 13 17 7 9 1008.8 1008.1 0.0
15/06:00pm 37.4 34.1 4.4 13 17.9 SW 11 17 6 9 1009.0 1008.3 0.0
15/05:30pm 38.1 34.4 2.5 11 18.8 SW 11 19 6 10 1009.1 1008.4 0.0
15/05:00pm 37.7 32.8 2.2 11 18.7 SW 17 24 9 13 1009.3 1008.6 0.0
15/04:30pm 38.0 33.3 -1.9 8 19.7 S 13 20 7 11 1009.5 1008.8 0.0
15/04:00pm 37.5 31.2 -4.1 7 19.8 SW 20 35 11 19 1009.8 1009.1 0.0
15/03:30pm 37.3 32.5 -6.3 6 20.0 WSW 11 20 6 11 1010.2 1009.5 0.0
15/03:00pm 36.8 29.9 -6.6 6 19.8 WSW 22 37 12 20 1010.7 1010.0 0.0
15/02:30pm 36.5 29.6 -3.0 8 19.0 WSW 24 33 13 18 1010.9 1010.1 0.0
15/02:00pm 35.2 30.2 1.5 12 17.3 W 17 22 9 12 1010.7 1010.0 0.0
15/01:30pm 34.2 29.6 6.5 18 15.3 W 20 35 11 19 1011.5 1010.8 0.0
15/01:00pm 31.0 27.7 10.9 29 11.7 WSW 19 28 10 15 1011.4 1010.7 0.0
15/12:30pm 30.1 28.0 9.6 28 11.6 WSW 11 17 6 9 1010.7 1010.0 0.0
15/12:00pm 30.6 27.7 9.5 27 12.0 WSW 15 20 8 11 1010.9 1010.1 0.0
15/11:30am 31.3 28.1 10.1 27 12.2 WSW 17 20 9 11 1010.7 1010.0 0.0
15/11:00am 32.5 27.6 6.7 20 14.2 WNW 22 28 12 15 1010.9 1010.1 0.0
15/10:30am 32.9 28.6 7.7 21 14.1 NW 20 28 11 15 1010.7 1010.0 0.0
15/10:00am 31.2 27.5 9.4 26 12.4 NW 19 26 10 14 1011.1 1010.3 0.0
15/09:30am 27.8 24.8 9.1 31 10.4 NNW 15 17 8 9 1011.3 1010.5 0.0
15/09:00am 24.7 22.7 8.6 36 8.8 NW 9 15 5 8 1011.1 1010.3 0.0
15/08:30am 23.0 20.4 9.4 42 7.4 NW 13 17 7 9 1010.9 1010.1 0.0
15/08:00am 21.8 19.5 9.0 44 6.9 N 11 15 6 8 1010.3 1009.6 0.0
15/07:30am 18.6 17.2 9.4 55 4.9 N 7 9 4 5 1010.0 1009.3 0.0
15/07:00am 17.5 15.0 8.4 55 4.7 N 11 11 6 6 1009.4 1008.7 0.0
15/06:30am 15.4 13.5 7.4 59 4.0 NNE 7 9 4 5 1009.2 1008.5 0.0
15/06:00am 15.8 14.0 8.1 60 3.9 N 7 11 4 6 1009.1 1008.4 0.0
15/05:30am 15.4 13.7 8.2 62 3.7 NNW 7 9 4 5 1009.3 1008.6 0.0
15/05:00am 17.2 15.6 4.5 43 6.1 N 2 9 1 5 1009.2 1008.5 0.0
15/04:30am 16.3 13.7 6.2 51 5.0 NE 9 11 5 6 1009.0 1008.3 0.0
15/04:00am 17.5 13.8 6.1 47 5.7 ENE 15 17 8 9 1009.4 1008.7 0.0
15/03:30am 14.6 12.0 7.9 64 3.4 E 11 13 6 7 1009.8 1009.1 0.0
15/03:00am 15.4 13.0 8.6 64 3.5 ENE 11 13 6 7 1010.2 1009.5 0.0
15/02:30am 15.1 12.5 9.5 69 2.9 ESE 13 15 7 8 1010.6 1009.9 0.0
15/02:00am 15.4 12.5 8.2 62 3.7 ESE 13 15 7 8 1010.9 1010.1 0.0
15/01:30am 15.8 13.0 8.5 62 3.8 ESE 13 15 7 8 1011.1 1010.3 0.0
15/01:00am 15.6 13.9 9.7 68 3.1 SE 9 11 5 6 1011.6 1010.9 0.0
15/12:30am 15.6 13.2 10.2 70 2.9 E 13 13 7 7 1011.7 1011.0 0.0
15/12:00am 17.1 14.9 12.2 73 2.7 E 15 17 8 9 1012.1 1011.4 0.0
 
Date/Time
EDT
Temp
°C
App
Temp
°C
Dew
Point
°C
Rel
Hum
%
Delta-T
°C
Wind Press
QNH
hPa
Press
MSL
hPa
Rain since
9am
mm
Dir  Spd
km/h
Gust
km/h
Spd
kts
Gust
kts
14/11:30pm 16.4 14.7 12.4 77 2.2 E 13 17 7 9 1012.4 1011.7 0.0
14/11:00pm 17.0 14.9 11.1 68 3.2 ESE 13 15 7 8 1012.2 1011.5 0.0
14/10:30pm 18.1 15.6 9.7 58 4.5 SE 13 15 7 8 1012.5 1011.8 0.0
14/10:00pm 18.7 16.3 8.7 52 5.3 SE 11 15 6 8 1012.4 1011.7 0.0
14/09:30pm 20.9 18.2 8.9 46 6.4 SSE 13 15 7 8 1012.2 1011.5 0.0
14/09:00pm 23.5 20.8 9.1 40 7.8 SSE 13 17 7 9 1012.3 1011.6 0.0
14/08:30pm 26.1 23.5 10.7 38 8.7 SSE 15 19 8 10 1011.9 1011.2 0.0
14/08:00pm 27.6 24.3 11.6 37 9.3 S 20 24 11 13 1011.7 1011.0 0.0
14/07:30pm 30.2 26.8 12.6 34 10.5 S 22 30 12 16 1011.6 1010.9 0.0
14/07:00pm 31.2 28.6 13.9 35 10.6 S 20 28 11 15 1011.3 1010.5 0.0
14/06:30pm 32.6 29.0 14.2 32 11.3 S 26 33 14 18 1011.0 1010.2 0.0
14/06:00pm 33.5 30.2 14.0 30 12.0 SSW 24 33 13 18 1010.7 1010.0 0.0
14/05:30pm 34.9 31.5 12.5 25 13.6 SSW 22 30 12 16 1010.9 1010.1 0.0
14/05:00pm 35.9 32.2 11.5 23 14.6 SW 22 28 12 15 1011.0 1010.2 0.0
14/04:30pm 35.9 33.4 10.9 22 14.9 SSW 15 26 8 14 1010.9 1010.1 0.0
14/04:00pm 36.8 32.4 2.8 12 17.9 WNW 15 22 8 12 1011.2 1010.4 0.0
14/03:30pm 35.9 31.6 3.2 13 17.3 SW 15 28 8 15 1011.4 1010.7 0.0
14/03:00pm 36.5 32.7 5.7 15 17.0 SW 15 20 8 11 1011.4 1010.7 0.0
14/02:30pm 36.2 32.1 4.5 14 17.1 SSW 15 20 8 11 1011.4 1010.7 0.0
14/02:00pm 35.9 31.0 5.2 15 16.7 SW 20 28 11 15 1011.5 1010.8 0.0

Other Formats:

Comma delimited format used in spreadsheet applications
http://www.bom.gov.au/fwo/IDV60801/IDV60801.94829.axf

JavaScript Object Notation format (JSON) in row-major order
http://www.bom.gov.au/fwo/IDV60801/IDV60801.94829.json